Time;durP1;ratioP1;P1;durP2;ratioP2;P2;SDS_P1;SDS_P2;PMS_P1;PMS_P2;Temp;Humidity;BMP_temperature;BMP_pressure;BME280_temperature;BME280_humidity;BME280_pressure;Samples;Min_cycle;Max_cycle;Signal;HPM_P1;HPM_P2
2022/02/27 00:01:35;;;;;;;6.47;2.65;;;1.40;90.30;;;;;;4950746;29;20035;-78
2022/02/27 00:04:01;;;;;;;6.90;2.50;;;1.60;89.20;;;;;;4938687;29;20047;-78
2022/02/27 00:06:27;;;;;;;5.38;3.17;;;1.70;87.00;;;;;;4937238;29;20036;-78
2022/02/27 00:08:54;;;;;;;6.32;2.20;;;2.00;84.70;;;;;;4935256;29;20032;-78
2022/02/27 00:11:20;;;;;;;5.47;2.70;;;2.20;83.80;;;;;;4936280;29;20031;-78
2022/02/27 00:13:46;;;;;;;9.98;3.03;;;2.20;83.90;;;;;;4935931;29;20039;-78
2022/02/27 00:16:12;;;;;;;4.75;2.63;;;2.20;84.00;;;;;;4936874;29;20043;-78
2022/02/27 00:18:38;;;;;;;4.35;2.55;;;2.20;83.40;;;;;;4935298;29;20039;-78
2022/02/27 00:21:05;;;;;;;7.38;3.00;;;2.20;83.80;;;;;;4936461;29;20350;-79
2022/02/27 00:23:31;;;;;;;5.65;2.80;;;2.10;84.10;;;;;;4935565;29;20030;-78
2022/02/27 00:25:57;;;;;;;10.07;6.00;;;2.10;84.20;;;;;;4936745;29;20046;-78
2022/02/27 00:28:24;;;;;;;13.60;4.50;;;2.00;85.60;;;;;;4935033;29;20249;-78
2022/02/27 00:30:52;;;;;;;12.18;5.22;;;1.80;87.10;;;;;;4935503;29;20046;-78
2022/02/27 00:33:19;;;;;;;11.90;7.32;;;1.50;88.60;;;;;;4953458;29;20042;-78
2022/02/27 00:35:46;;;;;;;8.90;5.35;;;1.30;90.10;;;;;;4940309;29;20367;-78
2022/02/27 00:38:13;;;;;;;12.10;5.75;;;1.20;90.40;;;;;;4945173;29;20035;-78
2022/02/27 00:40:39;;;;;;;12.40;5.00;;;1.00;90.90;;;;;;4940365;29;20039;-77
2022/02/27 00:43:05;;;;;;;12.38;6.60;;;0.90;91.20;;;;;;4935786;29;20099;-78
2022/02/27 00:45:32;;;;;;;14.85;6.60;;;0.80;91.80;;;;;;4936443;29;20038;-78
2022/02/27 00:47:58;;;;;;;9.90;5.80;;;0.70;92.50;;;;;;4935267;29;20452;-78
2022/02/27 00:50:25;;;;;;;8.38;2.75;;;0.60;93.40;;;;;;4940881;29;20031;-78
2022/02/27 00:52:51;;;;;;;19.17;8.13;;;0.50;93.10;;;;;;4954452;29;20054;-78
2022/02/27 00:55:18;;;;;;;8.38;5.13;;;0.60;93.10;;;;;;4936378;29;20377;-78
2022/02/27 00:57:44;;;;;;;11.55;4.07;;;0.50;93.20;;;;;;4935257;29;20132;-78
2022/02/27 01:00:11;;;;;;;11.18;3.45;;;0.30;93.80;;;;;;4950260;28;20413;-78
2022/02/27 01:02:38;;;;;;;13.10;4.45;;;0.20;94.70;;;;;;4950253;28;20043;-78
2022/02/27 01:05:05;;;;;;;4.43;3.35;;;0.10;95.70;;;;;;4938199;29;20039;-78
2022/02/27 01:07:31;;;;;;;10.52;3.20;;;-0.10;96.70;;;;;;4935323;28;20054;-78
2022/02/27 01:09:58;;;;;;;7.15;2.80;;;-0.20;97.70;;;;;;4940159;29;20038;-78
2022/02/27 01:12:24;;;;;;;6.70;3.50;;;-0.20;99.40;;;;;;4944635;29;20047;-78
2022/02/27 01:14:50;;;;;;;15.15;6.55;;;-0.20;99.80;;;;;;4957668;28;20464;-78
2022/02/27 01:17:17;;;;;;;13.77;6.25;;;-0.30;99.90;;;;;;4936214;29;20039;-78
2022/02/27 01:19:43;;;;;;;11.25;7.63;;;-0.40;99.90;;;;;;4943996;29;20453;-78
2022/02/27 01:22:09;;;;;;;5.65;3.33;;;-0.50;99.90;;;;;;4966674;28;20038;-78
2022/02/27 01:24:36;;;;;;;5.78;2.42;;;-0.60;99.90;;;;;;4944102;29;20039;-78
2022/02/27 01:27:03;;;;;;;5.38;2.90;;;-0.50;99.90;;;;;;4942275;29;20380;-78
2022/02/27 01:29:29;;;;;;;5.88;2.80;;;-0.50;99.90;;;;;;4946204;29;20057;-78
2022/02/27 01:31:55;;;;;;;11.40;2.50;;;-0.40;99.90;;;;;;4958435;29;20050;-78
2022/02/27 01:34:21;;;;;;;8.40;2.40;;;-0.40;99.90;;;;;;4947379;28;20047;-78
2022/02/27 01:36:48;;;;;;;5.50;2.92;;;-0.50;99.90;;;;;;4955862;28;20044;-78
2022/02/27 01:39:14;;;;;;;4.93;2.50;;;-0.60;99.90;;;;;;4939719;29;20039;-78
2022/02/27 01:41:40;;;;;;;3.10;2.20;;;-0.60;99.90;;;;;;4941865;29;20031;-78
2022/02/27 01:44:08;;;;;;;4.82;2.28;;;-0.80;99.90;;;;;;4941336;29;20039;-78
2022/02/27 01:46:35;;;;;;;4.78;2.72;;;-0.70;99.90;;;;;;4943956;29;20388;-78
2022/02/27 01:49:01;;;;;;;6.32;2.83;;;-0.80;99.90;;;;;;4940319;29;20032;-78
2022/02/27 01:51:28;;;;;;;8.02;2.25;;;-0.80;99.90;;;;;;4941098;29;20043;-78
2022/02/27 01:53:54;;;;;;;4.75;3.05;;;-0.80;99.90;;;;;;4941789;29;20034;-78
2022/02/27 01:56:21;;;;;;;4.90;2.38;;;-0.60;99.90;;;;;;4941018;29;20035;-78
2022/02/27 01:58:48;;;;;;;16.25;3.67;;;-0.60;99.90;;;;;;4954878;28;20044;-78
2022/02/27 02:01:14;;;;;;;8.88;2.65;;;-0.70;99.90;;;;;;4955951;28;20051;-78
2022/02/27 02:03:40;;;;;;;5.28;2.58;;;-0.60;99.90;;;;;;4941581;29;20039;-78
2022/02/27 02:06:07;;;;;;;3.65;2.33;;;-0.20;99.90;;;;;;4966039;28;20042;-78
2022/02/27 02:08:33;;;;;;;10.27;2.53;;;0.10;98.70;;;;;;4957514;28;20046;-78
2022/02/27 02:11:03;;;;;;;6.18;2.53;;;0.50;96.50;;;;;;4955691;28;20043;-78
2022/02/27 02:13:29;;;;;;;11.95;4.53;;;0.80;94.10;;;;;;4940743;29;20365;-77
2022/02/27 02:15:58;;;;;;;12.48;3.85;;;1.00;92.80;;;;;;4956109;28;20046;-78
2022/02/27 02:18:32;;;;;;;6.68;3.53;;;1.10;92.00;;;;;;4960366;28;20473;-77
2022/02/27 02:20:59;;;;;;;12.23;3.05;;;1.10;91.70;;;;;;4964288;28;20388;-78
2022/02/27 02:23:25;;;;;;;7.10;3.08;;;1.00;91.40;;;;;;4967039;28;20559;-78
2022/02/27 02:25:53;;;;;;;12.20;3.08;;;1.20;90.70;;;;;;4938982;29;20040;-78
2022/02/27 02:28:21;;;;;;;6.53;2.15;;;1.50;89.60;;;;;;4939509;29;20477;-77
2022/02/27 02:30:48;;;;;;;10.15;3.15;;;1.40;89.20;;;;;;4955891;28;20039;-78
2022/02/27 02:33:14;;;;;;;9.27;2.40;;;1.40;88.80;;;;;;4940732;29;20047;-78
2022/02/27 02:35:41;;;;;;;9.20;2.85;;;1.30;88.60;;;;;;4951734;28;20059;-78
2022/02/27 02:38:07;;;;;;;3.95;2.17;;;1.10;89.20;;;;;;4936281;29;20055;-79
2022/02/27 02:40:34;;;;;;;5.38;2.35;;;1.00;89.80;;;;;;4952351;28;20357;-78
2022/02/27 02:43:02;;;;;;;3.05;1.83;;;1.00;89.60;;;;;;4940132;29;20036;-78
2022/02/27 02:45:29;;;;;;;4.18;2.03;;;1.10;89.30;;;;;;4952061;28;20040;-78
2022/02/27 02:47:56;;;;;;;8.48;2.40;;;0.90;89.50;;;;;;4936900;29;20079;-78
2022/02/27 02:50:25;;;;;;;6.43;2.30;;;0.70;90.00;;;;;;4938928;29;20066;-78
2022/02/27 02:52:51;;;;;;;6.43;2.10;;;0.50;90.80;;;;;;4953296;28;20381;-78
2022/02/27 02:55:19;;;;;;;9.80;2.30;;;0.40;91.10;;;;;;4942566;29;20039;-78
2022/02/27 02:57:46;;;;;;;7.80;2.13;;;0.20;91.50;;;;;;4941735;29;20043;-78
2022/02/27 03:00:13;;;;;;;5.20;2.20;;;0.20;91.90;;;;;;4951300;28;20048;-78
2022/02/27 03:02:39;;;;;;;4.55;2.05;;;0.30;91.70;;;;;;4948216;29;20050;-78
2022/02/27 03:05:06;;;;;;;13.35;4.57;;;0.40;91.40;;;;;;4938141;29;20500;-78
2022/02/27 03:07:34;;;;;;;7.40;4.18;;;0.40;91.10;;;;;;4945687;29;20346;-78
2022/02/27 03:10:00;;;;;;;8.80;4.07;;;0.50;90.90;;;;;;4939162;29;20046;-78
2022/02/27 03:12:26;;;;;;;5.80;2.40;;;0.60;90.40;;;;;;4948399;29;20032;-78
2022/02/27 03:14:52;;;;;;;8.13;2.50;;;0.60;90.10;;;;;;4936114;29;20032;-78
2022/02/27 03:17:19;;;;;;;4.78;1.95;;;0.60;89.90;;;;;;4936975;29;20052;-78
2022/02/27 03:19:45;;;;;;;14.60;2.78;;;0.70;89.40;;;;;;4936124;29;20054;-78
2022/02/27 03:22:11;;;;;;;4.15;2.22;;;0.70;88.80;;;;;;4937359;29;20035;-78
2022/02/27 03:24:37;;;;;;;7.90;3.25;;;0.60;88.70;;;;;;4946944;29;20476;-78
2022/02/27 03:27:04;;;;;;;5.63;2.28;;;0.60;88.70;;;;;;4946980;29;20040;-77
2022/02/27 03:29:30;;;;;;;5.50;2.47;;;0.70;88.10;;;;;;4951386;28;20054;-78
2022/02/27 03:31:56;;;;;;;5.28;2.88;;;0.80;87.90;;;;;;4944074;29;20039;-77
2022/02/27 03:34:23;;;;;;;6.10;2.08;;;0.90;87.20;;;;;;4943980;29;20051;-78
2022/02/27 03:36:49;;;;;;;4.63;2.55;;;0.90;86.60;;;;;;4936900;29;20125;-78
2022/02/27 03:39:15;;;;;;;3.50;2.28;;;0.90;86.60;;;;;;4958789;28;20039;-77
2022/02/27 03:41:42;;;;;;;8.75;2.42;;;0.90;86.60;;;;;;4935528;29;20027;-78
2022/02/27 03:44:08;;;;;;;4.70;2.05;;;0.90;86.10;;;;;;4936534;29;20039;-78
2022/02/27 03:46:35;;;;;;;12.45;3.20;;;1.00;85.90;;;;;;4935849;29;20050;-78
2022/02/27 03:49:04;;;;;;;3.92;1.92;;;1.00;85.40;;;;;;4935101;29;20469;-78
2022/02/27 03:51:35;;;;;;;4.13;1.48;;;1.10;85.00;;;;;;4936445;29;20501;-77
2022/02/27 03:54:02;;;;;;;10.57;2.95;;;1.00;85.00;;;;;;4936764;29;20038;-78
2022/02/27 03:56:29;;;;;;;9.00;2.10;;;1.00;85.40;;;;;;4936221;29;20032;-78
2022/02/27 03:58:55;;;;;;;4.05;1.73;;;1.00;85.10;;;;;;4936241;29;20040;-78
2022/02/27 04:01:21;;;;;;;5.40;2.33;;;0.90;85.40;;;;;;4956984;28;20469;-78
2022/02/27 04:03:47;;;;;;;10.82;2.72;;;0.70;86.50;;;;;;4936529;29;20036;-78
2022/02/27 04:06:14;;;;;;;5.78;2.50;;;0.60;87.40;;;;;;4938803;29;20038;-78
2022/02/27 04:08:40;;;;;;;3.53;1.90;;;0.40;88.50;;;;;;4944564;29;20260;-78
2022/02/27 04:11:07;;;;;;;6.13;2.40;;;0.20;89.60;;;;;;4936109;29;20028;-78
2022/02/27 04:13:34;;;;;;;3.67;2.22;;;0.20;90.20;;;;;;4936307;29;20031;-78
2022/02/27 04:16:00;;;;;;;4.57;2.20;;;0.20;90.00;;;;;;4936316;29;20042;-79
2022/02/27 04:18:27;;;;;;;3.25;2.33;;;-0.10;90.30;;;;;;4934785;29;20388;-78
2022/02/27 04:20:53;;;;;;;7.60;2.58;;;-0.30;90.90;;;;;;4934976;29;20040;-78
2022/02/27 04:23:19;;;;;;;5.30;2.70;;;-0.60;91.70;;;;;;4936009;29;20023;-78
2022/02/27 04:25:45;;;;;;;5.57;2.30;;;-0.80;93.30;;;;;;4936328;29;20039;-78
2022/02/27 04:28:11;;;;;;;5.25;2.17;;;-0.90;94.10;;;;;;4934453;29;20031;-78
2022/02/27 04:30:37;;;;;;;2.67;1.52;;;-1.10;95.40;;;;;;4935383;29;20051;-78
2022/02/27 04:33:04;;;;;;;8.77;2.38;;;-1.10;96.60;;;;;;4935946;29;20469;-79
2022/02/27 04:35:30;;;;;;;8.50;2.85;;;-1.10;97.30;;;;;;4950074;28;20058;-78
2022/02/27 04:37:56;;;;;;;5.70;2.65;;;-1.20;97.70;;;;;;4936485;29;20036;-78
2022/02/27 04:40:23;;;;;;;10.35;4.38;;;-1.30;98.40;;;;;;4935532;29;20031;-78
2022/02/27 04:42:49;;;;;;;5.03;2.65;;;-1.30;98.90;;;;;;4934169;29;20052;-78
2022/02/27 04:45:15;;;;;;;7.75;2.92;;;-1.40;99.90;;;;;;4933639;29;20040;-78
2022/02/27 04:47:41;;;;;;;5.97;2.78;;;-1.40;99.90;;;;;;4934804;29;20028;-78
2022/02/27 04:50:08;;;;;;;3.42;2.08;;;-1.40;99.90;;;;;;4936888;29;20090;-78
2022/02/27 04:52:35;;;;;;;6.25;2.28;;;-1.40;99.90;;;;;;4938859;29;20038;-78
2022/02/27 04:55:03;;;;;;;7.35;2.47;;;-1.40;99.90;;;;;;4935318;29;20038;-78
2022/02/27 04:57:29;;;;;;;4.95;2.83;;;-1.40;99.90;;;;;;4934249;29;20039;-78
2022/02/27 04:59:55;;;;;;;8.55;3.60;;;-1.40;99.90;;;;;;4934942;29;20031;-78
2022/02/27 05:02:21;;;;;;;6.18;2.90;;;-1.30;99.90;;;;;;4934893;29;20038;-78
2022/02/27 05:04:47;;;;;;;14.55;3.58;;;-1.40;99.90;;;;;;4937779;29;20032;-78
2022/02/27 05:07:14;;;;;;;5.53;2.80;;;-1.50;99.90;;;;;;4935782;29;20389;-78
2022/02/27 05:09:40;;;;;;;8.55;2.78;;;-1.40;99.90;;;;;;4935506;29;20031;-78
2022/02/27 05:12:06;;;;;;;4.00;2.55;;;-1.30;99.90;;;;;;4937689;29;20042;-78
2022/02/27 05:14:33;;;;;;;4.10;2.30;;;-1.40;99.90;;;;;;4935420;29;20051;-78
2022/02/27 05:16:59;;;;;;;4.78;2.75;;;-1.50;99.90;;;;;;4934597;29;20034;-78
2022/02/27 05:19:25;;;;;;;14.25;4.15;;;-1.40;99.90;;;;;;4934296;29;20036;-78
2022/02/27 05:21:51;;;;;;;6.55;3.17;;;-0.90;99.90;;;;;;4935011;29;20406;-78
2022/02/27 05:24:18;;;;;;;9.23;3.97;;;-0.60;99.90;;;;;;4934912;29;20028;-78
2022/02/27 05:26:44;;;;;;;4.68;3.00;;;-0.30;99.90;;;;;;4934975;29;20362;-78
2022/02/27 05:29:10;;;;;;;10.85;3.47;;;-0.10;98.30;;;;;;4933798;29;20028;-78
2022/02/27 05:31:36;;;;;;;5.00;2.72;;;-0.10;97.30;;;;;;4935543;29;20035;-78
2022/02/27 05:34:03;;;;;;;3.17;2.40;;;-0.10;97.10;;;;;;4955789;28;20408;-78
2022/02/27 05:36:29;;;;;;;7.90;3.63;;;0.00;97.00;;;;;;4934563;29;20032;-78
2022/02/27 05:38:55;;;;;;;10.02;3.30;;;0.00;96.50;;;;;;4948411;28;20050;-78
2022/02/27 05:41:21;;;;;;;10.30;3.92;;;0.10;96.10;;;;;;4936955;29;20346;-78
2022/02/27 05:43:47;;;;;;;7.38;3.42;;;0.30;95.80;;;;;;4945002;29;20028;-78
2022/02/27 05:46:14;;;;;;;6.32;2.92;;;0.40;94.70;;;;;;4934591;29;20047;-78
2022/02/27 05:48:40;;;;;;;5.45;3.47;;;0.40;94.60;;;;;;4933922;29;20043;-78
2022/02/27 05:51:06;;;;;;;5.25;2.95;;;0.30;94.40;;;;;;4934115;29;20046;-77
2022/02/27 05:53:32;;;;;;;5.43;2.78;;;0.40;94.60;;;;;;4935078;29;20028;-78
2022/02/27 05:55:58;;;;;;;9.50;3.30;;;0.30;94.40;;;;;;4935339;29;20019;-78
2022/02/27 05:58:26;;;;;;;6.43;3.75;;;0.20;94.80;;;;;;4933736;29;20023;-78
2022/02/27 06:00:53;;;;;;;7.75;3.20;;;0.20;94.80;;;;;;4935645;29;20040;-78
2022/02/27 06:03:23;;;;;;;5.07;2.77;;;0.10;94.80;;;;;;4941094;29;20046;-78
2022/02/27 06:05:49;;;;;;;5.20;3.28;;;0.00;95.40;;;;;;4937461;29;20031;-78
2022/02/27 06:08:15;;;;;;;6.10;3.13;;;0.00;95.50;;;;;;4933081;29;20040;-77
2022/02/27 06:10:41;;;;;;;3.50;2.47;;;-0.10;96.00;;;;;;4937136;29;20054;-78
2022/02/27 06:13:08;;;;;;;4.68;3.38;;;-0.20;96.50;;;;;;4937883;29;20369;-78
2022/02/27 06:15:34;;;;;;;6.88;3.85;;;-0.20;96.60;;;;;;4938528;29;20047;-78
2022/02/27 06:18:01;;;;;;;8.45;3.10;;;-0.20;96.90;;;;;;4937335;29;20031;-78
2022/02/27 06:20:27;;;;;;;3.80;3.13;;;-0.10;96.80;;;;;;4937560;29;20480;-77
2022/02/27 06:22:53;;;;;;;10.93;3.50;;;0.00;96.20;;;;;;4938355;29;20039;-77
2022/02/27 06:25:20;;;;;;;9.45;3.25;;;0.10;95.90;;;;;;4938438;29;20032;-77
2022/02/27 06:27:47;;;;;;;11.40;3.78;;;0.20;95.70;;;;;;4936837;29;20038;-77
2022/02/27 06:30:17;;;;;;;14.88;3.88;;;0.20;95.60;;;;;;4926950;29;20059;-77
2022/02/27 06:32:47;;;;;;;6.45;3.33;;;0.20;95.60;;;;;;4945693;29;20502;-77
2022/02/27 06:35:14;;;;;;;6.35;4.13;;;0.20;95.50;;;;;;4949307;29;20038;-77
2022/02/27 06:37:40;;;;;;;7.35;4.15;;;0.10;95.40;;;;;;4949959;29;20043;-77
2022/02/27 06:40:10;;;;;;;6.50;3.40;;;0.10;95.90;;;;;;4948486;29;20043;-77
2022/02/27 06:42:39;;;;;;;7.75;4.28;;;0.20;95.90;;;;;;4947983;29;20346;-78
2022/02/27 06:45:07;;;;;;;8.88;4.50;;;0.30;95.50;;;;;;4949696;29;20063;-78
2022/02/27 06:47:33;;;;;;;7.72;4.03;;;0.30;95.40;;;;;;4949096;28;20039;-77
2022/02/27 06:50:00;;;;;;;7.35;3.80;;;0.40;95.40;;;;;;4947133;29;20043;-77
2022/02/27 06:52:27;;;;;;;9.80;4.32;;;0.50;95.20;;;;;;4950136;29;20369;-77
2022/02/27 06:54:53;;;;;;;6.45;4.55;;;0.50;95.00;;;;;;4945726;29;20460;-78
2022/02/27 06:57:19;;;;;;;8.00;4.45;;;0.60;94.80;;;;;;4947013;28;20350;-77
2022/02/27 06:59:45;;;;;;;7.80;4.47;;;0.80;94.80;;;;;;4938137;29;20039;-77
2022/02/27 07:02:12;;;;;;;11.30;4.00;;;1.00;93.90;;;;;;4934002;28;20032;-78
2022/02/27 07:04:38;;;;;;;7.93;4.43;;;1.40;92.90;;;;;;4935275;28;20047;-78
2022/02/27 07:07:05;;;;;;;12.05;6.95;;;2.10;90.90;;;;;;4960844;28;20036;-77
2022/02/27 07:09:31;;;;;;;12.30;6.78;;;2.60;87.60;;;;;;4948815;29;20035;-78
2022/02/27 07:11:57;;;;;;;12.38;4.95;;;2.60;86.80;;;;;;4944651;29;20024;-78
2022/02/27 07:14:23;;;;;;;5.38;3.75;;;2.70;86.20;;;;;;4936837;29;20028;-77
2022/02/27 07:16:50;;;;;;;5.40;3.40;;;2.90;84.90;;;;;;4937189;29;20032;-77
2022/02/27 07:19:16;;;;;;;7.22;3.50;;;3.00;83.80;;;;;;4936959;29;20039;-77
2022/02/27 07:21:43;;;;;;;10.93;3.45;;;3.10;83.50;;;;;;4935876;29;20027;-77
2022/02/27 07:24:10;;;;;;;10.30;3.65;;;3.20;82.70;;;;;;4936556;29;20035;-77
2022/02/27 07:26:36;;;;;;;15.35;3.75;;;3.30;82.40;;;;;;4952693;29;20031;-76
2022/02/27 07:29:02;;;;;;;8.77;3.63;;;3.30;82.00;;;;;;4935408;29;20048;-77
2022/02/27 07:31:30;;;;;;;5.85;3.72;;;3.40;81.50;;;;;;4953818;29;20038;-77
2022/02/27 07:33:56;;;;;;;8.95;4.05;;;3.50;81.10;;;;;;4939357;29;20027;-76
2022/02/27 07:36:22;;;;;;;11.05;3.67;;;3.80;79.80;;;;;;4936635;29;20043;-76
2022/02/27 07:38:48;;;;;;;8.63;3.75;;;4.00;78.90;;;;;;4937150;29;20038;-75
2022/02/27 07:41:14;;;;;;;7.53;3.65;;;4.10;78.40;;;;;;4934880;29;20028;-76
2022/02/27 07:43:41;;;;;;;3.25;2.60;;;4.20;77.50;;;;;;4936723;29;20384;-76
2022/02/27 07:46:07;;;;;;;15.40;3.47;;;4.30;76.50;;;;;;4936552;29;20040;-76
2022/02/27 07:48:33;;;;;;;6.72;3.92;;;4.60;75.90;;;;;;4935693;29;20034;-76
2022/02/27 07:51:00;;;;;;;5.43;3.65;;;4.80;75.40;;;;;;4934887;29;20027;-76
2022/02/27 07:53:27;;;;;;;3.25;2.80;;;5.10;73.70;;;;;;4956520;28;20372;-76
2022/02/27 07:55:53;;;;;;;5.03;3.50;;;5.40;71.90;;;;;;4953814;28;20054;-76
2022/02/27 07:58:19;;;;;;;4.03;3.13;;;5.50;71.70;;;;;;4938198;29;20028;-76
2022/02/27 08:00:45;;;;;;;6.15;3.67;;;6.00;71.00;;;;;;4935389;29;20039;-76
2022/02/27 08:03:12;;;;;;;7.45;3.50;;;6.10;70.30;;;;;;4936070;29;20086;-76
2022/02/27 08:05:40;;;;;;;6.15;3.63;;;5.90;69.00;;;;;;4935734;29;20035;-76
2022/02/27 08:08:06;;;;;;;4.50;3.58;;;5.90;69.10;;;;;;4936400;29;20380;-75
2022/02/27 08:10:32;;;;;;;6.57;4.25;;;6.30;67.40;;;;;;4934420;29;20023;-76
2022/02/27 08:12:59;;;;;;;6.15;3.38;;;6.00;68.40;;;;;;4935963;29;20046;-76
2022/02/27 08:15:25;;;;;;;6.78;4.07;;;6.20;66.90;;;;;;4935739;29;20031;-76
2022/02/27 08:17:53;;;;;;;5.05;2.70;;;6.80;66.10;;;;;;4936394;29;20031;-76
2022/02/27 08:20:19;;;;;;;4.28;3.03;;;7.70;65.10;;;;;;4945565;29;20372;-76
2022/02/27 08:22:45;;;;;;;5.90;3.17;;;8.40;61.60;;;;;;4948334;29;20369;-76
2022/02/27 08:25:12;;;;;;;4.43;3.08;;;8.20;61.00;;;;;;4935751;29;20027;-76
2022/02/27 08:27:39;;;;;;;4.68;3.35;;;7.40;62.30;;;;;;4955474;28;20384;-76
2022/02/27 08:30:06;;;;;;;5.03;3.70;;;7.70;62.40;;;;;;4934216;29;20039;-76
2022/02/27 08:32:32;;;;;;;5.60;4.00;;;7.70;63.00;;;;;;4934895;29;20035;-77
2022/02/27 08:35:01;;;;;;;5.65;3.63;;;7.30;63.10;;;;;;4935375;29;20027;-76
2022/02/27 08:37:27;;;;;;;10.38;3.88;;;7.90;61.80;;;;;;4935262;29;20381;-77
2022/02/27 08:39:53;;;;;;;7.60;3.60;;;7.70;62.10;;;;;;4950239;29;20043;-76
2022/02/27 08:42:20;;;;;;;5.78;3.30;;;8.50;61.20;;;;;;4938953;29;20035;-77
2022/02/27 08:44:46;;;;;;;7.07;3.95;;;8.60;60.00;;;;;;4935749;29;20058;-76
2022/02/27 08:47:12;;;;;;;5.88;4.50;;;8.50;58.50;;;;;;4937088;29;20415;-77
2022/02/27 08:49:38;;;;;;;6.28;3.30;;;9.00;58.50;;;;;;4934897;29;20039;-76
2022/02/27 08:52:05;;;;;;;6.28;3.03;;;9.80;56.80;;;;;;4935076;29;20040;-76
2022/02/27 08:54:31;;;;;;;4.93;3.50;;;9.20;57.30;;;;;;4935327;29;20039;-76
2022/02/27 08:56:57;;;;;;;6.22;3.42;;;10.30;56.80;;;;;;4935502;29;20051;-76
2022/02/27 08:59:23;;;;;;;5.50;3.50;;;11.60;53.90;;;;;;4934178;29;20051;-77
2022/02/27 09:01:50;;;;;;;5.70;3.75;;;11.20;52.60;;;;;;4934697;29;20043;-76
2022/02/27 09:04:16;;;;;;;5.45;3.47;;;10.80;53.80;;;;;;4934701;29;20039;-76
2022/02/27 09:06:42;;;;;;;9.95;3.30;;;10.90;53.80;;;;;;4935423;28;20036;-76
2022/02/27 09:09:08;;;;;;;6.18;3.85;;;11.20;53.70;;;;;;4935329;29;20050;-76
2022/02/27 09:11:35;;;;;;;4.05;3.30;;;10.90;53.00;;;;;;4937055;29;20120;-76
2022/02/27 09:14:01;;;;;;;3.25;2.75;;;10.30;54.70;;;;;;4934859;29;20031;-76
2022/02/27 09:16:27;;;;;;;5.57;3.60;;;11.00;52.60;;;;;;4935299;29;20055;-77
2022/02/27 09:18:53;;;;;;;5.47;3.70;;;11.20;52.10;;;;;;4947609;29;20050;-76
2022/02/27 09:21:19;;;;;;;5.90;3.20;;;11.60;50.80;;;;;;4937330;29;20449;-76
2022/02/27 09:23:45;;;;;;;5.15;3.22;;;11.60;51.10;;;;;;4945080;29;20035;-77
2022/02/27 09:26:12;;;;;;;5.05;4.00;;;11.80;51.80;;;;;;4945998;29;20023;-76
2022/02/27 09:28:38;;;;;;;4.63;3.20;;;11.40;52.80;;;;;;4952878;28;20035;-76
2022/02/27 09:31:04;;;;;;;7.18;3.10;;;10.50;53.30;;;;;;4934246;29;20027;-77
2022/02/27 09:33:30;;;;;;;5.65;3.45;;;10.90;54.30;;;;;;4934688;29;20042;-76
2022/02/27 09:35:57;;;;;;;4.38;2.60;;;11.50;51.90;;;;;;4935295;29;20028;-77
2022/02/27 09:38:23;;;;;;;5.68;2.90;;;12.60;48.30;;;;;;4934316;29;20353;-77
2022/02/27 09:40:50;;;;;;;6.43;4.10;;;12.90;48.00;;;;;;4933841;29;20028;-77
2022/02/27 09:43:18;;;;;;;4.88;2.85;;;12.30;49.60;;;;;;4935096;29;20452;-77
2022/02/27 09:45:46;;;;;;;6.10;3.45;;;13.10;47.30;;;;;;4938745;29;20038;-77
2022/02/27 09:48:13;;;;;;;6.32;5.63;;;11.80;49.10;;;;;;4956731;28;20044;-76
2022/02/27 09:50:41;;;;;;;5.25;3.58;;;11.60;50.10;;;;;;4937538;29;20051;-77
2022/02/27 09:53:09;;;;;;;7.10;3.75;;;11.40;49.40;;;;;;4939838;29;20030;-79
2022/02/27 09:55:37;;;;;;;3.70;2.22;;;10.60;47.20;;;;;;4937934;29;20027;-76
2022/02/27 09:58:04;;;;;;;2.63;1.73;;;10.00;48.80;;;;;;4940071;29;20058;-77
2022/02/27 10:00:33;;;;;;;2.75;1.88;;;9.30;49.40;;;;;;4940625;29;20039;-77
2022/02/27 10:03:08;;;;;;;3.58;2.10;;;9.10;50.90;;;;;;4944056;29;20070;-76
2022/02/27 10:05:40;;;;;;;7.18;1.70;;;8.80;50.30;;;;;;4938531;29;20035;-74
2022/02/27 10:08:07;;;;;;;4.28;1.88;;;8.70;49.90;;;;;;4938677;29;20051;-78
2022/02/27 10:10:34;;;;;;;3.90;1.60;;;8.50;50.70;;;;;;4937112;29;20040;-78
2022/02/27 10:13:00;;;;;;;3.55;1.85;;;8.70;50.00;;;;;;4938783;29;20039;-78
2022/02/27 10:15:27;;;;;;;3.92;2.30;;;8.70;50.00;;;;;;4938073;29;20480;-77
2022/02/27 10:17:53;;;;;;;3.33;2.33;;;8.60;50.10;;;;;;4938756;29;20031;-77
2022/02/27 10:20:24;;;;;;;3.45;1.88;;;8.50;50.60;;;;;;4937037;29;20028;-74
2022/02/27 10:22:54;;;;;;;4.72;2.70;;;8.30;50.90;;;;;;4938091;29;20043;-75
2022/02/27 10:25:21;;;;;;;7.13;2.42;;;8.30;51.40;;;;;;4937948;29;20035;-79
2022/02/27 10:27:56;;;;;;;5.70;2.40;;;8.30;51.80;;;;;;4938542;29;20038;-78
2022/02/27 10:30:37;;;;;;;4.43;2.67;;;8.20;52.20;;;;;;4936926;29;20031;-79
2022/02/27 10:33:07;;;;;;;8.85;2.50;;;8.10;52.10;;;;;;4939035;29;20042;-76
2022/02/27 10:35:42;;;;;;;3.78;2.60;;;8.10;52.40;;;;;;4937312;29;20024;-78
2022/02/27 10:38:14;;;;;;;4.80;2.65;;;8.10;52.10;;;;;;4946780;29;20027;-78
2022/02/27 10:40:44;;;;;;;6.25;3.00;;;8.20;52.30;;;;;;4935594;29;20039;-74
2022/02/27 10:43:12;;;;;;;3.70;2.33;;;8.30;51.90;;;;;;4938019;29;20028;-78
2022/02/27 10:45:40;;;;;;;4.13;2.25;;;8.40;52.10;;;;;;4938259;29;20034;-78
2022/02/27 10:48:09;;;;;;;3.90;2.17;;;8.30;51.60;;;;;;4952467;28;20055;-78
2022/02/27 10:50:36;;;;;;;4.18;2.42;;;8.10;51.50;;;;;;4935029;29;20461;-78
2022/02/27 10:53:03;;;;;;;4.40;2.50;;;8.10;52.30;;;;;;4937602;29;20032;-78
2022/02/27 10:55:32;;;;;;;2.97;2.13;;;8.20;51.90;;;;;;4936881;29;20027;-78
2022/02/27 10:58:00;;;;;;;3.70;2.28;;;8.30;51.80;;;;;;4938017;29;20031;-79
2022/02/27 11:00:32;;;;;;;3.75;2.30;;;8.40;51.30;;;;;;4935497;29;20047;-77
2022/02/27 11:03:07;;;;;;;4.22;2.45;;;8.50;51.60;;;;;;4944071;29;20040;-77
2022/02/27 11:05:36;;;;;;;4.07;2.63;;;8.30;49.70;;;;;;4935878;29;20062;-77
2022/02/27 11:08:08;;;;;;;2.75;2.03;;;8.30;50.00;;;;;;4937417;29;20027;-76
2022/02/27 11:10:37;;;;;;;5.45;2.03;;;8.20;49.70;;;;;;4935493;29;20036;-77
2022/02/27 11:13:09;;;;;;;3.08;2.25;;;8.30;50.00;;;;;;4940152;29;20043;-78
2022/02/27 11:15:36;;;;;;;6.10;2.08;;;8.30;49.60;;;;;;4946480;29;20043;-76
2022/02/27 11:18:05;;;;;;;4.80;2.42;;;8.50;50.40;;;;;;4945907;29;20023;-77
2022/02/27 11:20:31;;;;;;;3.00;2.00;;;8.30;49.50;;;;;;4935853;29;20035;-77
2022/02/27 11:22:58;;;;;;;3.10;2.10;;;8.60;50.40;;;;;;4937365;29;20034;-77
2022/02/27 11:25:26;;;;;;;2.80;1.88;;;8.60;49.70;;;;;;4936554;29;20039;-77
2022/02/27 11:27:59;;;;;;;2.97;2.08;;;8.60;49.00;;;;;;4936386;29;20042;-77
2022/02/27 11:30:30;;;;;;;3.03;2.20;;;8.50;49.30;;;;;;4935077;29;20043;-78
2022/02/27 11:32:58;;;;;;;3.33;2.05;;;8.30;49.40;;;;;;4937328;29;20365;-78
2022/02/27 11:35:46;;;;;;;2.92;2.60;;;8.40;49.50;;;;;;4951948;29;20499;-76
2022/02/27 11:38:19;;;;;;;4.55;2.97;;;8.50;48.90;;;;;;4936319;29;20028;-77
2022/02/27 11:40:49;;;;;;;3.45;2.80;;;8.40;49.20;;;;;;4935629;29;20031;-78
2022/02/27 11:43:39;;;;;;;3.60;2.42;;;8.40;48.70;;;;;;4936620;29;20043;-76
2022/02/27 11:46:08;;;;;;;7.70;2.08;;;8.40;48.70;;;;;;4936660;29;20369;-76
2022/02/27 11:48:54;;;;;;;6.10;2.63;;;8.60;48.90;;;;;;4950573;28;20043;-78
2022/02/27 11:51:36;;;;;;;3.97;1.90;;;8.70;49.30;;;;;;4935517;29;20396;-77
2022/02/27 11:54:08;;;;;;;3.25;2.25;;;8.70;49.00;;;;;;4946953;29;20149;-79
2022/02/27 11:56:37;;;;;;;4.13;2.58;;;8.70;49.30;;;;;;4936011;29;20488;-78
2022/02/27 11:59:04;;;;;;;2.53;2.15;;;8.60;49.40;;;;;;4936104;29;20039;-78
2022/02/27 12:01:37;;;;;;;3.50;2.20;;;8.60;49.20;;;;;;4934521;29;20050;-78
2022/02/27 12:04:19;;;;;;;3.38;1.98;;;8.80;49.00;;;;;;4951184;28;20050;-77
2022/02/27 12:07:09;;;;;;;2.78;2.15;;;8.90;49.60;;;;;;4935377;29;20445;-79
2022/02/27 12:09:53;;;;;;;3.53;2.65;;;9.00;48.70;;;;;;4942223;29;20028;-79
2022/02/27 12:12:37;;;;;;;4.40;2.50;;;8.80;49.30;;;;;;4950605;28;20036;-78
2022/02/27 12:15:26;;;;;;;3.00;2.15;;;8.80;49.00;;;;;;4936448;29;20035;-76
2022/02/27 12:18:07;;;;;;;4.00;2.50;;;8.60;49.60;;;;;;4937146;29;20039;-78
2022/02/27 12:20:43;;;;;;;8.20;3.15;;;8.50;50.20;;;;;;4935359;29;20023;-78
2022/02/27 12:23:12;;;;;;;2.38;2.13;;;8.50;49.70;;;;;;4937010;29;20091;-78
2022/02/27 12:25:44;;;;;;;3.97;2.72;;;8.60;49.90;;;;;;4957476;28;20040;-77
2022/02/27 12:28:10;;;;;;;4.28;2.22;;;8.70;50.20;;;;;;4936410;29;20389;-78
2022/02/27 12:30:37;;;;;;;2.95;2.72;;;8.90;49.10;;;;;;4935047;29;20032;-78
2022/02/27 12:33:07;;;;;;;6.32;2.67;;;9.00;48.70;;;;;;4935900;29;20046;-79
2022/02/27 12:35:38;;;;;;;2.53;2.08;;;8.90;48.40;;;;;;4935632;29;20038;-78
2022/02/27 12:38:13;;;;;;;2.90;1.90;;;8.80;49.00;;;;;;4935586;29;20038;-78
2022/02/27 12:40:40;;;;;;;2.10;1.80;;;8.90;48.80;;;;;;4935263;29;20038;-79
2022/02/27 12:43:09;;;;;;;3.08;1.88;;;8.80;48.50;;;;;;4936374;29;20036;-74
2022/02/27 12:45:35;;;;;;;3.15;1.77;;;8.90;49.10;;;;;;4949686;29;20035;-77
2022/02/27 12:48:10;;;;;;;7.35;2.47;;;8.90;48.40;;;;;;4934562;29;20469;-77
2022/02/27 12:50:47;;;;;;;4.13;2.08;;;9.00;48.80;;;;;;4940490;29;20058;-78
2022/02/27 12:53:15;;;;;;;5.38;1.80;;;9.10;48.60;;;;;;4950555;28;20062;-78
2022/02/27 12:55:42;;;;;;;3.83;2.15;;;9.00;48.20;;;;;;4934929;29;20032;-79